Portada
METAR-TAF:

METAR-TAF

Aeropuertos :

Monticello, Kentucky, Estados Unidos

latitud: 36-51-19N, longitud: 084-51-22W, altitud: 294 m

Observación

El informe se hizo hace 16 minutos, a las 20:56 UTC
Viento 4 kt con dirección variable
Temperatura 29°C
Humedad 62%
Presión 1026 hPa
Visibilidad: 16.1 km
Cielo nuboso a una altura de 4100 ft

METAR: KEKQ 192056Z AUTO VRB04KT 10SM BKN041 29/21 A3029 RMK AO2 SLP246 T02890211 56011

Hora: 17:12 (21:12 UTC)


TAF: falta

Observaciones y pronósticos meteorológicos de más de 4000 aeropuertos (mensajes METAR y TAF).

Los puntos amarillos y rojos representan las estaciones disponibles.

Ponga el ratón en el punto deseado para ver el nombre de la estación.

Haga clic para ver las observaciones y los pronósticos meteorológicos.

Para cambiar el mapa : haga clic en los botones verdes con una cruz de color negro para hacer un zoom, en el botón verde con un guión para alejar o en las flechas verdes para mapas adyacentes.


METAR-TAF: